Time;durP1;ratioP1;P1;durP2;ratioP2;P2;SDS_P1;SDS_P2;PMS_P1;PMS_P2;Temp;Humidity;BMP_temperature;BMP_pressure;BME280_temperature;BME280_humidity;BME280_pressure;Samples;Min_cycle;Max_cycle;Signal;HPM_P1;HPM_P2
2023/12/15 00:02:46;;;;;;;52.55;16.77;;;;;;;;;;6264374;28;20050;-62
2023/12/15 00:05:47;;;;;;;49.70;16.88;;;;;;;;;;6264820;28;20049;-62
2023/12/15 00:08:48;;;;;;;57.30;18.80;;;;;;;;;;6263108;28;20056;-63
2023/12/15 00:11:48;;;;;;;55.15;18.15;;;;;;;;;;6264352;28;20041;-62
2023/12/15 00:14:50;;;;;;;62.33;19.90;;;;;;;;;;6263102;28;20562;-62
2023/12/15 00:17:51;;;;;;;60.42;20.63;;;;;;;;;;6263994;28;20045;-62
2023/12/15 00:20:51;;;;;;;65.82;20.60;;;;;;;;;;6264878;28;20529;-62
2023/12/15 00:23:55;;;;;;;60.63;20.13;;;;;;;;;;6269054;28;20049;-62
2023/12/15 00:26:58;;;;;;;59.15;19.25;;;;;;;;;;6267790;28;20057;-62
2023/12/15 00:29:58;;;;;;;62.40;20.33;;;;;;;;;;6258921;28;20052;-62
2023/12/15 00:32:59;;;;;;;65.60;18.98;;;;;;;;;;6263906;28;20053;-62
2023/12/15 00:36:00;;;;;;;59.22;18.50;;;;;;;;;;6257174;28;20166;-62
2023/12/15 00:39:01;;;;;;;55.20;18.27;;;;;;;;;;6267863;28;20045;-63
2023/12/15 00:42:02;;;;;;;63.35;18.35;;;;;;;;;;6267178;28;20064;-63
2023/12/15 00:45:03;;;;;;;64.75;21.80;;;;;;;;;;6267233;28;20073;-63
2023/12/15 00:48:04;;;;;;;61.85;19.67;;;;;;;;;;6268140;28;20053;-62
2023/12/15 00:51:05;;;;;;;57.58;19.08;;;;;;;;;;6266078;28;20436;-61
2023/12/15 00:54:05;;;;;;;55.10;18.08;;;;;;;;;;6265727;28;20049;-62
2023/12/15 00:57:06;;;;;;;55.33;18.65;;;;;;;;;;6267662;28;20037;-62
2023/12/15 01:00:07;;;;;;;51.08;17.25;;;;;;;;;;6263898;28;20048;-62
2023/12/15 01:03:08;;;;;;;51.45;17.10;;;;;;;;;;6262034;28;20073;-61
2023/12/15 01:06:09;;;;;;;49.60;15.65;;;;;;;;;;6268425;28;20069;-63
2023/12/15 01:09:09;;;;;;;45.78;16.23;;;;;;;;;;6266860;28;20080;-62
2023/12/15 01:12:10;;;;;;;39.45;14.65;;;;;;;;;;6259935;28;20046;-63
2023/12/15 01:15:11;;;;;;;38.20;14.35;;;;;;;;;;6264634;28;20519;-62
2023/12/15 01:18:12;;;;;;;45.50;15.52;;;;;;;;;;6266946;28;20049;-62
2023/12/15 01:21:13;;;;;;;45.00;15.63;;;;;;;;;;6268263;28;20049;-62
2023/12/15 01:24:13;;;;;;;46.40;15.30;;;;;;;;;;6268765;28;20063;-62
2023/12/15 01:27:15;;;;;;;41.13;15.52;;;;;;;;;;6263909;28;20061;-62
2023/12/15 01:30:16;;;;;;;42.67;16.00;;;;;;;;;;6257421;28;20099;-62
2023/12/15 01:33:17;;;;;;;41.35;14.38;;;;;;;;;;6264442;28;20045;-62
2023/12/15 01:36:17;;;;;;;37.78;13.95;;;;;;;;;;6266376;28;20090;-63
2023/12/15 01:39:18;;;;;;;36.63;14.27;;;;;;;;;;6264629;28;20561;-62
2023/12/15 01:42:19;;;;;;;35.00;13.68;;;;;;;;;;6267409;28;20052;-62
2023/12/15 01:45:19;;;;;;;41.70;13.93;;;;;;;;;;6268122;28;20049;-62
2023/12/15 01:48:20;;;;;;;38.60;13.23;;;;;;;;;;6268089;28;20049;-63
2023/12/15 01:51:21;;;;;;;38.72;14.20;;;;;;;;;;6264183;28;20065;-61
2023/12/15 01:54:21;;;;;;;43.85;14.93;;;;;;;;;;6267386;28;20495;-62
2023/12/15 01:57:22;;;;;;;35.17;13.75;;;;;;;;;;6265291;28;20068;-62
2023/12/15 02:00:23;;;;;;;33.50;13.40;;;;;;;;;;6265899;28;20044;-63
2023/12/15 02:03:24;;;;;;;33.88;12.15;;;;;;;;;;6267509;28;20496;-62
2023/12/15 02:06:25;;;;;;;34.55;12.85;;;;;;;;;;6268784;28;20094;-62
2023/12/15 02:09:26;;;;;;;33.40;12.68;;;;;;;;;;6263659;28;20483;-62
2023/12/15 02:12:26;;;;;;;33.90;13.15;;;;;;;;;;6265434;28;20055;-60
2023/12/15 02:15:27;;;;;;;30.80;12.18;;;;;;;;;;6266284;28;20055;-60
2023/12/15 02:18:28;;;;;;;32.38;11.77;;;;;;;;;;6266020;28;20115;-61
2023/12/15 02:21:29;;;;;;;33.08;12.00;;;;;;;;;;6265605;28;20048;-63
2023/12/15 02:24:29;;;;;;;33.53;12.50;;;;;;;;;;6265385;28;20037;-62
2023/12/15 02:27:30;;;;;;;34.97;13.13;;;;;;;;;;6266102;28;20127;-63
2023/12/15 02:30:31;;;;;;;33.20;12.48;;;;;;;;;;6265249;28;20404;-62
2023/12/15 02:33:31;;;;;;;27.30;11.05;;;;;;;;;;6265754;28;20068;-63
2023/12/15 02:36:32;;;;;;;30.85;11.95;;;;;;;;;;6266877;28;20049;-62
2023/12/15 02:39:33;;;;;;;26.38;10.52;;;;;;;;;;6262579;28;20088;-62
2023/12/15 02:42:34;;;;;;;32.20;12.13;;;;;;;;;;6265886;28;20056;-62
2023/12/15 02:45:34;;;;;;;29.33;11.60;;;;;;;;;;6263999;28;20049;-62
2023/12/15 02:48:35;;;;;;;30.13;12.45;;;;;;;;;;6265382;28;20083;-62
2023/12/15 02:51:36;;;;;;;27.05;11.93;;;;;;;;;;6266029;28;20052;-62
2023/12/15 02:54:36;;;;;;;25.02;10.45;;;;;;;;;;6264050;28;20045;-62
2023/12/15 02:57:37;;;;;;;28.05;11.00;;;;;;;;;;6264932;28;20049;-62
2023/12/15 03:00:38;;;;;;;22.73;9.32;;;;;;;;;;6263367;28;20041;-61
2023/12/15 03:03:38;;;;;;;24.90;10.07;;;;;;;;;;6265785;28;20040;-62
2023/12/15 03:06:39;;;;;;;24.85;9.27;;;;;;;;;;6263746;28;20063;-63
2023/12/15 03:09:40;;;;;;;19.88;7.93;;;;;;;;;;6263905;28;20099;-62
2023/12/15 03:12:40;;;;;;;17.27;7.75;;;;;;;;;;6265657;28;20091;-62
2023/12/15 03:15:42;;;;;;;17.65;8.18;;;;;;;;;;6265478;28;20052;-63
2023/12/15 03:18:42;;;;;;;17.50;7.60;;;;;;;;;;6263605;28;20098;-62
2023/12/15 03:21:43;;;;;;;16.38;6.57;;;;;;;;;;6262400;28;20041;-62
2023/12/15 03:24:44;;;;;;;18.45;7.93;;;;;;;;;;6264741;28;20055;-62
2023/12/15 03:27:44;;;;;;;16.23;7.53;;;;;;;;;;6263990;28;20052;-63
2023/12/15 03:30:45;;;;;;;14.23;6.75;;;;;;;;;;6259014;28;20041;-62
2023/12/15 03:33:46;;;;;;;15.50;6.68;;;;;;;;;;6265457;28;20136;-62
2023/12/15 03:36:46;;;;;;;13.38;6.72;;;;;;;;;;6263817;28;20053;-62
2023/12/15 03:39:47;;;;;;;15.25;7.25;;;;;;;;;;6263621;28;20049;-61
2023/12/15 03:42:48;;;;;;;14.65;6.72;;;;;;;;;;6264805;28;20592;-62
2023/12/15 03:45:48;;;;;;;13.70;6.68;;;;;;;;;;6264317;28;20134;-62
2023/12/15 03:48:49;;;;;;;15.15;6.78;;;;;;;;;;6262192;28;20476;-62
2023/12/15 03:51:50;;;;;;;14.13;6.45;;;;;;;;;;6263910;28;20037;-62
2023/12/15 03:54:50;;;;;;;15.35;6.68;;;;;;;;;;6264476;28;20126;-62
2023/12/15 03:57:51;;;;;;;12.50;5.97;;;;;;;;;;6267218;28;20045;-62
2023/12/15 04:00:52;;;;;;;14.95;6.63;;;;;;;;;;6269511;28;20044;-61
2023/12/15 04:03:52;;;;;;;14.77;6.43;;;;;;;;;;6268529;28;20526;-62
2023/12/15 04:06:53;;;;;;;16.67;7.00;;;;;;;;;;6269943;28;20056;-61
2023/12/15 04:09:54;;;;;;;19.20;8.43;;;;;;;;;;6269074;28;20149;-61
2023/12/15 04:12:54;;;;;;;18.13;7.60;;;;;;;;;;6269106;28;20053;-61
2023/12/15 04:15:55;;;;;;;14.82;7.38;;;;;;;;;;6268656;28;20075;-62
2023/12/15 04:18:58;;;;;;;15.85;7.05;;;;;;;;;;6268071;28;20403;-61
2023/12/15 04:21:58;;;;;;;14.35;7.28;;;;;;;;;;6269773;28;20047;-62
2023/12/15 04:24:59;;;;;;;17.90;8.35;;;;;;;;;;6269716;28;20049;-61
2023/12/15 04:28:00;;;;;;;19.88;9.13;;;;;;;;;;6262381;28;20147;-61
2023/12/15 04:31:00;;;;;;;17.27;8.18;;;;;;;;;;6267025;28;20078;-60
2023/12/15 04:34:01;;;;;;;17.98;7.95;;;;;;;;;;6268146;28;20634;-63
2023/12/15 04:37:02;;;;;;;17.80;8.55;;;;;;;;;;6267301;28;20545;-61
2023/12/15 04:40:03;;;;;;;20.42;9.43;;;;;;;;;;6267676;28;20427;-61
2023/12/15 04:43:03;;;;;;;21.63;9.77;;;;;;;;;;6268991;28;20314;-61
2023/12/15 04:46:04;;;;;;;18.42;9.00;;;;;;;;;;6269060;28;20045;-61
2023/12/15 04:49:05;;;;;;;23.10;9.32;;;;;;;;;;6266853;28;20130;-61
2023/12/15 04:52:06;;;;;;;20.77;9.13;;;;;;;;;;6269460;28;20091;-61
2023/12/15 04:55:07;;;;;;;24.35;9.65;;;;;;;;;;6268750;28;20086;-61
2023/12/15 04:58:08;;;;;;;18.48;7.63;;;;;;;;;;6267250;28;20399;-61
2023/12/15 05:01:10;;;;;;;21.95;8.98;;;;;;;;;;6267749;28;20052;-61
2023/12/15 05:04:11;;;;;;;22.85;10.63;;;;;;;;;;6267660;28;20407;-61
2023/12/15 05:07:11;;;;;;;30.13;10.88;;;;;;;;;;6267509;28;20045;-62
2023/12/15 05:10:12;;;;;;;22.13;9.32;;;;;;;;;;6265566;28;20049;-62
2023/12/15 05:13:13;;;;;;;25.42;10.38;;;;;;;;;;6268308;28;20048;-61
2023/12/15 05:16:13;;;;;;;23.85;10.63;;;;;;;;;;6269715;28;20127;-62
2023/12/15 05:19:14;;;;;;;22.92;9.60;;;;;;;;;;6282161;28;20115;-61
2023/12/15 05:22:15;;;;;;;25.60;10.75;;;;;;;;;;6264882;28;20049;-61
2023/12/15 05:25:15;;;;;;;24.38;11.18;;;;;;;;;;6260961;28;20060;-61
2023/12/15 05:28:16;;;;;;;28.02;12.48;;;;;;;;;;6265397;28;20045;-62
2023/12/15 05:31:17;;;;;;;30.55;12.82;;;;;;;;;;6258276;28;20056;-61
2023/12/15 05:34:18;;;;;;;31.10;13.50;;;;;;;;;;6264933;28;20466;-62
2023/12/15 05:37:18;;;;;;;29.48;12.85;;;;;;;;;;6266029;28;20045;-61
2023/12/15 05:40:19;;;;;;;32.78;14.07;;;;;;;;;;6265739;28;20059;-60
2023/12/15 05:43:20;;;;;;;32.78;13.43;;;;;;;;;;6266304;28;20047;-62
2023/12/15 05:46:20;;;;;;;31.15;14.00;;;;;;;;;;6266266;28;20468;-61
2023/12/15 05:49:21;;;;;;;35.42;15.23;;;;;;;;;;6265557;28;20396;-62
2023/12/15 05:52:22;;;;;;;31.98;14.45;;;;;;;;;;6265018;28;20037;-61
2023/12/15 05:55:22;;;;;;;34.92;13.63;;;;;;;;;;6264428;28;20106;-61
2023/12/15 05:58:23;;;;;;;34.50;15.02;;;;;;;;;;6263388;28;20037;-61
2023/12/15 06:01:23;;;;;;;37.67;15.77;;;;;;;;;;6262618;28;20241;-61
2023/12/15 06:04:24;;;;;;;36.85;17.05;;;;;;;;;;6258856;28;20103;-62
2023/12/15 06:07:25;;;;;;;42.60;20.73;;;;;;;;;;6259566;28;20053;-61
2023/12/15 06:10:26;;;;;;;41.05;19.23;;;;;;;;;;6262689;28;20052;-61
2023/12/15 06:13:26;;;;;;;46.95;20.17;;;;;;;;;;6264377;28;20681;-61
2023/12/15 06:16:27;;;;;;;41.55;19.50;;;;;;;;;;6264208;28;20106;-62
2023/12/15 06:19:28;;;;;;;43.70;19.17;;;;;;;;;;6262325;28;20059;-61
2023/12/15 06:22:29;;;;;;;40.38;18.15;;;;;;;;;;6266365;28;20037;-62
2023/12/15 06:25:29;;;;;;;42.75;19.35;;;;;;;;;;6265511;28;20056;-62
2023/12/15 06:28:30;;;;;;;38.97;18.58;;;;;;;;;;6264468;28;20798;-62
2023/12/15 06:31:31;;;;;;;40.60;19.02;;;;;;;;;;6266425;28;20049;-61
2023/12/15 06:34:31;;;;;;;39.63;19.13;;;;;;;;;;6267475;28;20090;-62
2023/12/15 06:37:32;;;;;;;42.40;20.88;;;;;;;;;;6271536;28;20045;-61
2023/12/15 06:40:33;;;;;;;43.90;19.75;;;;;;;;;;6268606;28;20045;-62
2023/12/15 06:43:33;;;;;;;36.13;17.70;;;;;;;;;;6264708;28;20410;-61
2023/12/15 06:46:36;;;;;;;43.63;19.10;;;;;;;;;;6263420;28;20076;-61
2023/12/15 06:49:37;;;;;;;44.38;19.60;;;;;;;;;;6264772;28;20099;-61
2023/12/15 06:52:38;;;;;;;44.05;19.50;;;;;;;;;;6266204;28;20057;-61
2023/12/15 06:55:38;;;;;;;47.85;19.33;;;;;;;;;;6263866;28;20044;-61
2023/12/15 06:58:39;;;;;;;44.97;19.50;;;;;;;;;;6262190;28;20044;-61
2023/12/15 07:01:39;;;;;;;47.95;19.83;;;;;;;;;;6265275;28;20076;-61
2023/12/15 07:04:40;;;;;;;49.75;20.42;;;;;;;;;;6262898;28;20041;-61
2023/12/15 07:07:41;;;;;;;47.58;19.42;;;;;;;;;;6264210;28;20044;-62
2023/12/15 07:10:41;;;;;;;54.75;22.55;;;;;;;;;;6263947;28;20036;-61
2023/12/15 07:13:42;;;;;;;54.78;22.13;;;;;;;;;;6265176;28;20055;-61
2023/12/15 07:16:43;;;;;;;49.03;20.33;;;;;;;;;;6265834;28;20411;-60
2023/12/15 07:19:44;;;;;;;48.70;19.67;;;;;;;;;;6264555;28;20049;-61
2023/12/15 07:22:44;;;;;;;46.78;19.40;;;;;;;;;;6265082;28;20093;-61
2023/12/15 07:25:45;;;;;;;47.22;20.50;;;;;;;;;;6265703;28;20045;-61
2023/12/15 07:28:47;;;;;;;48.60;20.38;;;;;;;;;;6264670;28;20479;-61
2023/12/15 07:31:49;;;;;;;50.28;19.00;;;;;;;;;;6265346;28;20052;-62
2023/12/15 07:34:51;;;;;;;45.60;20.08;;;;;;;;;;6261782;28;20060;-61
2023/12/15 07:37:51;;;;;;;46.70;20.02;;;;;;;;;;6263722;28;20419;-61
2023/12/15 07:40:54;;;;;;;49.88;20.45;;;;;;;;;;6263280;28;20091;-61
2023/12/15 07:43:54;;;;;;;;;;;;;;;;;;6265054;28;20076;-61
2023/12/15 07:46:55;;;;;;;41.33;17.60;;;;;;;;;;6264470;28;19955;-61
2023/12/15 07:49:57;;;;;;;50.13;20.10;;;;;;;;;;6264584;28;20056;-61
2023/12/15 07:52:57;;;;;;;45.70;18.07;;;;;;;;;;6265467;28;20094;-61
2023/12/15 07:55:58;;;;;;;45.65;17.98;;;;;;;;;;6264960;28;20773;-62
2023/12/15 07:58:59;;;;;;;47.83;18.65;;;;;;;;;;6262596;28;20103;-62
2023/12/15 08:02:00;;;;;;;48.33;19.42;;;;;;;;;;6263147;28;20049;-61
2023/12/15 08:05:01;;;;;;;42.23;18.30;;;;;;;;;;6265839;28;20437;-61
2023/12/15 08:08:01;;;;;;;43.33;17.90;;;;;;;;;;6263350;28;20037;-61
2023/12/15 08:11:02;;;;;;;44.47;19.33;;;;;;;;;;6264978;28;20069;-61
2023/12/15 08:14:03;;;;;;;43.38;17.98;;;;;;;;;;6262926;28;20504;-61
2023/12/15 08:17:04;;;;;;;45.95;18.40;;;;;;;;;;6264898;28;20053;-61
2023/12/15 08:20:06;;;;;;;41.47;18.08;;;;;;;;;;6263886;28;20056;-61
2023/12/15 08:23:06;;;;;;;44.40;19.43;;;;;;;;;;6264914;28;20052;-60
2023/12/15 08:26:08;;;;;;;48.67;20.25;;;;;;;;;;6265272;28;20049;-61
2023/12/15 08:29:09;;;;;;;51.25;21.17;;;;;;;;;;6262883;28;20558;-61
2023/12/15 08:32:09;;;;;;;47.72;19.70;;;;;;;;;;6265032;28;20045;-61
2023/12/15 08:35:10;;;;;;;46.67;18.45;;;;;;;;;;6263333;28;20285;-62
2023/12/15 08:38:11;;;;;;;44.55;18.90;;;;;;;;;;6262696;28;20047;-61
2023/12/15 08:41:12;;;;;;;44.80;18.60;;;;;;;;;;6264339;28;20538;-61
2023/12/15 08:44:12;;;;;;;42.80;18.92;;;;;;;;;;6269030;28;20060;-61
2023/12/15 08:47:13;;;;;;;46.72;18.33;;;;;;;;;;6267799;28;20057;-62
2023/12/15 08:50:14;;;;;;;41.97;19.08;;;;;;;;;;6267309;28;20521;-61
2023/12/15 08:53:16;;;;;;;44.10;18.33;;;;;;;;;;6269463;28;20091;-61
2023/12/15 08:56:17;;;;;;;39.45;17.30;;;;;;;;;;6268082;28;20071;-62
2023/12/15 08:59:17;;;;;;;44.85;17.88;;;;;;;;;;6267684;28;20076;-61
2023/12/15 09:02:19;;;;;;;46.15;20.80;;;;;;;;;;6269438;28;20376;-61
2023/12/15 09:05:23;;;;;;;50.53;20.60;;;;;;;;;;6269587;28;20106;-62
2023/12/15 09:08:24;;;;;;;48.47;21.38;;;;;;;;;;6267487;28;20198;-61
2023/12/15 09:11:25;;;;;;;51.60;21.80;;;;;;;;;;6255360;28;20040;-61
2023/12/15 09:14:28;;;;;;;48.97;21.13;;;;;;;;;;6266470;28;20064;-62
2023/12/15 09:17:29;;;;;;;54.67;21.02;;;;;;;;;;6268758;28;20476;-62
2023/12/15 09:20:30;;;;;;;46.70;20.90;;;;;;;;;;6264996;28;20053;-62
2023/12/15 09:23:31;;;;;;;40.25;18.65;;;;;;;;;;6265734;28;20060;-61
2023/12/15 09:26:32;;;;;;;44.17;19.25;;;;;;;;;;6268365;28;20650;-61
2023/12/15 09:29:35;;;;;;;41.53;17.92;;;;;;;;;;6265201;28;20581;-61
2023/12/15 09:32:36;;;;;;;47.10;19.65;;;;;;;;;;6267650;28;20041;-61
2023/12/15 09:35:37;;;;;;;44.92;23.48;;;;;;;;;;6266863;28;20135;-61
2023/12/15 09:38:37;;;;;;;44.38;21.95;;;;;;;;;;6266193;28;20446;-61
2023/12/15 09:41:38;;;;;;;47.97;22.23;;;;;;;;;;6268629;28;20435;-62
2023/12/15 09:44:39;;;;;;;43.45;20.83;;;;;;;;;;6267062;28;20041;-62
2023/12/15 09:47:45;;;;;;;40.22;20.58;;;;;;;;;;6267791;28;20055;-61
2023/12/15 09:50:51;;;;;;;39.63;19.73;;;;;;;;;;6268319;28;20049;-62
2023/12/15 09:53:53;;;;;;;41.20;19.58;;;;;;;;;;6266216;28;20052;-62
2023/12/15 09:56:54;;;;;;;44.22;18.77;;;;;;;;;;6265623;28;20522;-62
2023/12/15 09:59:56;;;;;;;42.27;18.50;;;;;;;;;;6264886;28;20649;-62
2023/12/15 10:02:59;;;;;;;48.10;20.02;;;;;;;;;;6265731;28;20397;-61
2023/12/15 10:06:00;;;;;;;39.60;17.48;;;;;;;;;;6267484;28;20049;-61
2023/12/15 10:09:00;;;;;;;43.45;19.73;;;;;;;;;;6267966;28;20476;-62
2023/12/15 10:12:01;;;;;;;42.20;18.00;;;;;;;;;;6266160;28;20585;-62
2023/12/15 10:15:01;;;;;;;38.55;16.90;;;;;;;;;;6265020;28;20049;-62
2023/12/15 10:18:03;;;;;;;44.45;18.88;;;;;;;;;;6265494;28;20110;-61
2023/12/15 10:21:04;;;;;;;43.20;17.58;;;;;;;;;;6265839;28;20463;-62
2023/12/15 10:24:22;;;;;;;40.17;17.88;;;;;;;;;;6265143;28;20037;-62
2023/12/15 10:27:22;;;;;;;38.95;16.20;;;;;;;;;;6266238;28;20049;-62
2023/12/15 10:30:23;;;;;;;37.20;16.08;;;;;;;;;;6263936;28;20182;-61
2023/12/15 10:33:26;;;;;;;38.65;16.65;;;;;;;;;;6267405;28;20045;-62
2023/12/15 10:36:29;;;;;;;38.67;17.55;;;;;;;;;;6268711;28;20057;-62
2023/12/15 10:39:29;;;;;;;42.45;17.88;;;;;;;;;;6266232;28;20064;-62
2023/12/15 10:42:30;;;;;;;40.80;18.60;;;;;;;;;;6264707;28;20051;-62
2023/12/15 10:45:32;;;;;;;38.35;17.15;;;;;;;;;;6266800;28;20057;-62
2023/12/15 10:48:33;;;;;;;43.00;19.50;;;;;;;;;;6266130;28;20049;-62
2023/12/15 10:51:38;;;;;;;42.55;19.17;;;;;;;;;;6252165;28;20049;-61
2023/12/15 10:54:42;;;;;;;42.13;17.65;;;;;;;;;;6266334;28;20393;-61
2023/12/15 10:57:44;;;;;;;46.70;19.50;;;;;;;;;;6266086;28;20095;-61
2023/12/15 11:00:46;;;;;;;41.65;19.10;;;;;;;;;;6265013;28;20068;-62
2023/12/15 11:03:46;;;;;;;43.00;18.02;;;;;;;;;;6263696;28;20041;-61
2023/12/15 11:06:48;;;;;;;41.22;18.67;;;;;;;;;;6264562;28;20472;-61
2023/12/15 11:09:49;;;;;;;44.30;19.30;;;;;;;;;;6264613;28;20053;-61
2023/12/15 11:12:50;;;;;;;43.40;18.52;;;;;;;;;;6263925;28;20374;-62
2023/12/15 11:15:51;;;;;;;38.08;16.73;;;;;;;;;;6265228;28;20177;-62
2023/12/15 11:18:51;;;;;;;42.38;17.65;;;;;;;;;;6263836;28;20044;-62
2023/12/15 11:21:52;;;;;;;39.20;17.58;;;;;;;;;;6263630;28;20052;-62
2023/12/15 11:24:54;;;;;;;38.92;16.73;;;;;;;;;;6264231;28;20047;-62
2023/12/15 11:28:08;;;;;;;34.65;16.55;;;;;;;;;;6264132;28;20064;-62
2023/12/15 11:31:21;;;;;;;38.50;17.35;;;;;;;;;;6264756;28;20049;-62
2023/12/15 11:34:40;;;;;;;37.75;16.60;;;;;;;;;;6266024;28;20052;-62
2023/12/15 11:37:41;;;;;;;35.72;15.48;;;;;;;;;;6264096;28;20114;-62
2023/12/15 11:40:42;;;;;;;38.70;16.47;;;;;;;;;;6265252;28;20435;-62
2023/12/15 11:43:43;;;;;;;39.30;16.65;;;;;;;;;;6264166;28;20381;-62
2023/12/15 11:46:45;;;;;;;40.35;16.73;;;;;;;;;;6265095;28;20052;-62
2023/12/15 11:49:46;;;;;;;36.35;16.10;;;;;;;;;;6263518;28;20055;-62
2023/12/15 11:52:46;;;;;;;36.72;15.77;;;;;;;;;;6263960;28;20472;-62
2023/12/15 11:55:51;;;;;;;37.10;16.95;;;;;;;;;;6263685;28;20484;-62
2023/12/15 11:58:52;;;;;;;43.00;17.88;;;;;;;;;;6265043;28;20044;-61
2023/12/15 12:01:52;;;;;;;41.75;18.02;;;;;;;;;;6264652;28;20045;-63
2023/12/15 12:04:54;;;;;;;43.40;19.58;;;;;;;;;;6263117;28;20037;-61
2023/12/15 12:07:59;;;;;;;43.90;18.73;;;;;;;;;;6263235;28;20053;-62
2023/12/15 12:11:00;;;;;;;46.85;19.48;;;;;;;;;;6263328;28;20056;-63
2023/12/15 12:14:03;;;;;;;46.10;20.48;;;;;;;;;;6263365;28;20041;-63
2023/12/15 12:17:05;;;;;;;47.88;19.92;;;;;;;;;;6263513;28;20156;-61
2023/12/15 12:20:10;;;;;;;54.10;21.85;;;;;;;;;;6268397;28;20057;-62
2023/12/15 12:23:12;;;;;;;55.15;21.95;;;;;;;;;;6266337;28;20407;-62
2023/12/15 12:26:14;;;;;;;42.30;18.20;;;;;;;;;;6268717;28;20037;-63
2023/12/15 12:29:14;;;;;;;41.63;17.67;;;;;;;;;;6269750;28;20562;-63
2023/12/15 12:32:15;;;;;;;41.83;18.73;;;;;;;;;;6269601;28;20059;-62
2023/12/15 12:35:16;;;;;;;45.58;19.13;;;;;;;;;;6268177;28;20098;-62
2023/12/15 12:38:17;;;;;;;49.40;20.95;;;;;;;;;;6270395;28;20041;-62
2023/12/15 12:41:17;;;;;;;47.17;19.83;;;;;;;;;;6268879;28;20041;-63
2023/12/15 12:44:18;;;;;;;45.70;19.65;;;;;;;;;;6267584;28;20048;-63
2023/12/15 12:47:19;;;;;;;46.20;19.88;;;;;;;;;;6268826;28;20044;-61
2023/12/15 12:50:21;;;;;;;46.67;19.90;;;;;;;;;;6268851;28;20124;-60
2023/12/15 12:53:22;;;;;;;46.08;20.67;;;;;;;;;;6243162;28;20456;-60
2023/12/15 12:56:22;;;;;;;44.45;19.05;;;;;;;;;;6245602;28;20062;-62
2023/12/15 12:59:23;;;;;;;45.92;19.88;;;;;;;;;;6244463;28;20045;-59
2023/12/15 13:02:24;;;;;;;43.78;20.33;;;;;;;;;;6263955;28;20076;-63
2023/12/15 13:05:25;;;;;;;43.55;19.65;;;;;;;;;;6246993;28;20053;-62
2023/12/15 13:08:26;;;;;;;44.47;18.85;;;;;;;;;;6249057;28;20459;-61
2023/12/15 13:11:27;;;;;;;43.55;17.60;;;;;;;;;;6244382;28;20056;-62
2023/12/15 13:14:28;;;;;;;36.78;16.85;;;;;;;;;;6238632;28;20056;-62
2023/12/15 13:17:29;;;;;;;42.13;17.02;;;;;;;;;;6244597;28;20412;-62
2023/12/15 13:20:30;;;;;;;37.30;16.40;;;;;;;;;;6245061;28;20080;-62
2023/12/15 13:23:30;;;;;;;38.72;17.15;;;;;;;;;;6242706;28;20767;-63
2023/12/15 13:26:31;;;;;;;40.85;18.42;;;;;;;;;;6243123;28;20500;-62
2023/12/15 13:29:32;;;;;;;42.40;17.75;;;;;;;;;;6242327;28;20061;-62
2023/12/15 13:32:33;;;;;;;43.78;19.15;;;;;;;;;;6243179;28;20730;-62
2023/12/15 13:35:34;;;;;;;41.60;20.02;;;;;;;;;;6236824;28;20053;-62
2023/12/15 13:38:35;;;;;;;49.22;19.52;;;;;;;;;;6246706;28;20077;-62
2023/12/15 13:41:36;;;;;;;45.25;21.25;;;;;;;;;;6243643;28;20053;-62
2023/12/15 13:44:37;;;;;;;54.13;24.15;;;;;;;;;;6239059;28;20049;-62
2023/12/15 13:47:37;;;;;;;53.95;20.38;;;;;;;;;;6242092;28;20060;-62
2023/12/15 13:50:38;;;;;;;37.80;15.93;;;;;;;;;;6245485;28;20063;-62
2023/12/15 13:53:39;;;;;;;41.70;16.13;;;;;;;;;;6240937;28;20065;-62
2023/12/15 13:56:40;;;;;;;39.92;16.98;;;;;;;;;;6242197;28;20484;-62
2023/12/15 13:59:41;;;;;;;36.97;16.67;;;;;;;;;;6250744;28;20079;-62
2023/12/15 14:02:42;;;;;;;38.00;15.97;;;;;;;;;;6241497;28;20099;-62
2023/12/15 14:05:43;;;;;;;43.72;18.80;;;;;;;;;;6239367;28;20496;-62
2023/12/15 14:08:44;;;;;;;36.60;15.48;;;;;;;;;;6241378;28;20080;-62
2023/12/15 14:11:44;;;;;;;35.65;15.18;;;;;;;;;;6243408;28;20056;-62
2023/12/15 14:14:46;;;;;;;34.92;15.75;;;;;;;;;;6190480;28;1500748;-62
2023/12/15 14:17:47;;;;;;;35.50;14.27;;;;;;;;;;6245928;28;20045;-62
2023/12/15 14:20:48;;;;;;;39.40;15.20;;;;;;;;;;6248247;28;20307;-62
2023/12/15 14:23:49;;;;;;;34.63;15.65;;;;;;;;;;6246341;28;20510;-62
2023/12/15 14:26:50;;;;;;;40.10;15.30;;;;;;;;;;6247063;28;20049;-62
2023/12/15 14:29:51;;;;;;;41.07;15.77;;;;;;;;;;6243540;28;20748;-62
2023/12/15 14:32:52;;;;;;;40.75;15.45;;;;;;;;;;6245766;28;20095;-62
2023/12/15 14:35:53;;;;;;;39.00;15.23;;;;;;;;;;6245961;28;20053;-62
2023/12/15 14:38:54;;;;;;;35.97;15.52;;;;;;;;;;6245172;28;21079;-62
2023/12/15 14:41:54;;;;;;;35.03;15.25;;;;;;;;;;6245363;28;20049;-62
2023/12/15 14:44:55;;;;;;;42.22;15.07;;;;;;;;;;6241925;28;20064;-62
2023/12/15 14:47:57;;;;;;;38.90;16.35;;;;;;;;;;6249803;28;20060;-62
2023/12/15 14:50:58;;;;;;;43.67;17.20;;;;;;;;;;6242380;28;20054;-62
2023/12/15 14:53:59;;;;;;;45.10;18.15;;;;;;;;;;6239724;28;20057;-62
2023/12/15 14:57:00;;;;;;;41.55;17.65;;;;;;;;;;6244978;28;20116;-62
2023/12/15 15:00:01;;;;;;;42.83;16.98;;;;;;;;;;6245557;28;20136;-62
2023/12/15 15:03:02;;;;;;;46.58;18.58;;;;;;;;;;6241984;28;20154;-62
2023/12/15 15:06:03;;;;;;;45.65;17.73;;;;;;;;;;6241508;28;20033;-62
2023/12/15 15:09:05;;;;;;;45.90;18.88;;;;;;;;;;6251743;28;20192;-62
2023/12/15 15:12:05;;;;;;;45.10;20.05;;;;;;;;;;6244524;28;20057;-62
2023/12/15 15:15:08;;;;;;;45.97;19.02;;;;;;;;;;6238672;28;20066;-62
2023/12/15 15:18:08;;;;;;;49.92;20.33;;;;;;;;;;6242942;28;20053;-62
2023/12/15 15:21:09;;;;;;;50.85;20.05;;;;;;;;;;6245896;28;20137;-62
2023/12/15 15:24:10;;;;;;;47.17;19.83;;;;;;;;;;6241806;28;20656;-62
2023/12/15 15:27:11;;;;;;;48.33;20.95;;;;;;;;;;6241010;28;20130;-62
2023/12/15 15:30:11;;;;;;;49.75;21.02;;;;;;;;;;6241441;28;20095;-62
2023/12/15 15:33:14;;;;;;;51.45;19.85;;;;;;;;;;6244265;28;20059;-62
2023/12/15 15:36:14;;;;;;;51.97;21.13;;;;;;;;;;6243319;28;20055;-61
2023/12/15 15:39:17;;;;;;;48.42;21.33;;;;;;;;;;6243150;28;20823;-63
2023/12/15 15:42:18;;;;;;;51.70;20.40;;;;;;;;;;6243643;28;20512;-62
2023/12/15 15:45:19;;;;;;;51.45;20.20;;;;;;;;;;6235983;28;20152;-62
2023/12/15 15:48:19;;;;;;;54.88;21.48;;;;;;;;;;6244529;28;20057;-61
2023/12/15 15:51:24;;;;;;;49.38;21.20;;;;;;;;;;6241700;28;20088;-62
2023/12/15 15:54:25;;;;;;;52.40;21.52;;;;;;;;;;6241911;28;20077;-62
2023/12/15 15:57:27;;;;;;;53.95;22.02;;;;;;;;;;6241362;28;20053;-62
2023/12/15 16:00:28;;;;;;;57.83;23.90;;;;;;;;;;6242436;28;20056;-63
2023/12/15 16:03:28;;;;;;;56.95;23.90;;;;;;;;;;6242291;28;20053;-64
2023/12/15 16:06:29;;;;;;;62.65;25.65;;;;;;;;;;6238753;28;20480;-62
2023/12/15 16:09:30;;;;;;;68.57;28.17;;;;;;;;;;6246347;28;20053;-61
2023/12/15 16:12:31;;;;;;;65.28;27.73;;;;;;;;;;6243731;28;20049;-63
2023/12/15 16:15:31;;;;;;;69.70;28.95;;;;;;;;;;6236719;28;20061;-63
2023/12/15 16:18:32;;;;;;;79.53;29.40;;;;;;;;;;6245518;28;20466;-62
2023/12/15 16:21:34;;;;;;;78.00;28.80;;;;;;;;;;6242905;28;20088;-61
2023/12/15 16:24:35;;;;;;;76.30;29.05;;;;;;;;;;6243156;28;20063;-61
2023/12/15 16:27:36;;;;;;;70.28;27.50;;;;;;;;;;6241999;28;20152;-62
2023/12/15 16:30:37;;;;;;;72.68;27.73;;;;;;;;;;6243774;28;20057;-63
2023/12/15 16:33:38;;;;;;;78.85;30.40;;;;;;;;;;6243649;28;20064;-62
2023/12/15 16:36:38;;;;;;;75.22;30.75;;;;;;;;;;6240587;28;20045;-62
2023/12/15 16:39:40;;;;;;;74.25;30.60;;;;;;;;;;6245148;28;20064;-62
2023/12/15 16:42:45;;;;;;;81.78;34.50;;;;;;;;;;6242383;28;20188;-64
2023/12/15 16:45:46;;;;;;;77.45;33.60;;;;;;;;;;6236899;28;20060;-61
2023/12/15 16:48:52;;;;;;;80.95;34.13;;;;;;;;;;6246101;28;20057;-63
2023/12/15 16:51:54;;;;;;;71.97;29.88;;;;;;;;;;6242917;28;20143;-62
2023/12/15 16:54:55;;;;;;;73.28;29.77;;;;;;;;;;6241531;28;20045;-62
2023/12/15 16:57:56;;;;;;;74.00;29.75;;;;;;;;;;6247469;28;20056;-63
2023/12/15 17:00:58;;;;;;;71.40;28.92;;;;;;;;;;6245451;28;20060;-63
2023/12/15 17:03:59;;;;;;;71.57;28.20;;;;;;;;;;6244834;28;20053;-64
2023/12/15 17:07:00;;;;;;;68.20;27.58;;;;;;;;;;6250134;28;20424;-63
2023/12/15 17:10:01;;;;;;;77.43;29.52;;;;;;;;;;6249399;28;20059;-63
2023/12/15 17:13:01;;;;;;;65.45;26.17;;;;;;;;;;6246653;28;20624;-64
2023/12/15 17:16:03;;;;;;;68.07;26.52;;;;;;;;;;6250622;28;20033;-63
2023/12/15 17:19:03;;;;;;;62.30;24.90;;;;;;;;;;6246774;28;20060;-63
2023/12/15 17:22:04;;;;;;;64.63;25.05;;;;;;;;;;6250590;28;20069;-63
2023/12/15 17:25:05;;;;;;;65.43;24.95;;;;;;;;;;6247255;28;20049;-63
2023/12/15 17:28:06;;;;;;;61.50;26.70;;;;;;;;;;6242815;28;20152;-61
2023/12/15 17:31:07;;;;;;;69.85;26.25;;;;;;;;;;6243870;28;20505;-62
2023/12/15 17:34:08;;;;;;;72.78;26.80;;;;;;;;;;6241747;28;20839;-63
2023/12/15 17:37:09;;;;;;;67.45;27.30;;;;;;;;;;6245990;28;20147;-62